createdAt,value
2022-12-07T00:02:26.481Z,2.43
2022-12-07T00:05:13.013Z,2.39
2022-12-07T00:07:59.964Z,2.32
2022-12-07T00:10:49.310Z,2.35
2022-12-07T00:13:36.890Z,2.47
2022-12-07T00:16:25.943Z,2.36
2022-12-07T00:19:14.502Z,2.41
2022-12-07T00:22:01.127Z,2.39
2022-12-07T00:24:47.980Z,2.27
2022-12-07T00:27:37.227Z,2.43
2022-12-07T00:30:25.159Z,2.37
2022-12-07T00:33:15.336Z,2.36
2022-12-07T00:36:08.494Z,2.43
2022-12-07T00:38:56.669Z,2.48
2022-12-07T00:41:46.564Z,2.43
2022-12-07T00:44:44.480Z,2.41
2022-12-07T00:47:38.092Z,2.39
2022-12-07T00:50:24.759Z,2.41
2022-12-07T00:53:15.024Z,2.38
2022-12-07T00:56:14.904Z,2.24
2022-12-07T00:59:04.572Z,2.41
2022-12-07T01:01:54.988Z,2.42
2022-12-07T01:04:41.924Z,2.16
2022-12-07T01:07:28.418Z,2.37
2022-12-07T01:10:18.979Z,2.28
2022-12-07T01:13:05.780Z,2.39
2022-12-07T01:15:52.496Z,2.38
2022-12-07T01:18:39.745Z,2.28
2022-12-07T01:21:31.160Z,2.18
2022-12-07T01:24:20.620Z,2.41
2022-12-07T01:27:07.099Z,2.46
2022-12-07T01:29:53.720Z,2.47
2022-12-07T01:32:40.693Z,2.38
2022-12-07T01:35:27.087Z,2.34
2022-12-07T01:38:16.666Z,2.46
2022-12-07T01:41:03.799Z,2.47
2022-12-07T01:44:31.107Z,2.52
2022-12-07T01:47:19.983Z,2.42
2022-12-07T01:50:07.089Z,2.54
2022-12-07T01:52:55.332Z,2.14
2022-12-07T01:55:46.010Z,2.51
2022-12-07T01:58:35.793Z,2.32
2022-12-07T02:01:23.478Z,2.23
2022-12-07T02:04:10.467Z,2.45
2022-12-07T02:06:59.151Z,2.28
2022-12-07T02:09:46.051Z,2.48
2022-12-07T02:12:32.971Z,2.41
2022-12-07T02:15:22.313Z,2.52
2022-12-07T02:18:19.236Z,2.52
2022-12-07T02:21:14.252Z,2.46
2022-12-07T02:24:10.032Z,2.40
2022-12-07T02:27:09.441Z,2.60
2022-12-07T02:29:59.819Z,2.61
2022-12-07T02:32:46.352Z,2.60
2022-12-07T02:35:46.335Z,2.57
2022-12-07T02:38:41.823Z,2.37
2022-12-07T02:41:36.589Z,2.24
2022-12-07T02:44:26.279Z,2.60
2022-12-07T02:47:16.243Z,2.57
2022-12-07T02:50:07.769Z,2.24
2022-12-07T02:52:54.622Z,2.46
2022-12-07T02:55:42.969Z,2.35
2022-12-07T02:58:41.995Z,2.59
2022-12-07T03:01:45.443Z,2.58
2022-12-07T03:04:32.633Z,2.60
2022-12-07T03:07:39.223Z,2.59
2022-12-07T03:10:33.476Z,2.36
2022-12-07T03:13:37.431Z,2.46
2022-12-07T03:16:29.039Z,2.45
2022-12-07T03:19:21.407Z,2.52
2022-12-07T03:22:13.677Z,2.62
2022-12-07T03:25:02.674Z,2.63
2022-12-07T03:27:59.928Z,2.68
2022-12-07T03:30:57.349Z,2.67
2022-12-07T03:33:53.526Z,2.61
2022-12-07T03:37:14.318Z,2.67
2022-12-07T03:40:25.023Z,2.47
2022-12-07T03:43:14.696Z,2.61
2022-12-07T03:46:22.407Z,2.66
2022-12-07T03:49:29.098Z,2.62
2022-12-07T03:52:24.692Z,2.56
2022-12-07T03:55:31.381Z,2.58
2022-12-07T03:58:21.301Z,2.58
2022-12-07T04:01:08.099Z,2.52
2022-12-07T04:03:55.275Z,2.43
2022-12-07T04:06:42.812Z,2.38
2022-12-07T04:09:33.633Z,2.41
2022-12-07T04:12:23.753Z,2.39
2022-12-07T04:15:11.424Z,2.26
2022-12-07T04:18:00.780Z,2.19
2022-12-07T04:20:50.616Z,2.29
2022-12-07T04:23:37.268Z,2.23
2022-12-07T04:26:26.692Z,2.22
2022-12-07T04:29:16.491Z,2.23
2022-12-07T04:32:03.749Z,2.15
2022-12-07T04:34:55.377Z,2.10
2022-12-07T04:37:45.635Z,1.94
2022-12-07T04:40:32.130Z,1.69
2022-12-07T04:43:20.725Z,2.08
2022-12-07T04:46:07.141Z,1.80
2022-12-07T04:48:57.194Z,1.71
2022-12-07T04:51:48.084Z,1.98
2022-12-07T04:54:35.469Z,1.89
2022-12-07T04:57:24.096Z,1.79
2022-12-07T05:00:11.727Z,1.95
2022-12-07T05:03:01.138Z,1.86
2022-12-07T05:05:47.863Z,1.89
2022-12-07T05:08:36.355Z,1.92
2022-12-07T05:11:41.449Z,1.74
2022-12-07T05:14:28.422Z,1.62
2022-12-07T05:17:15.428Z,1.89
2022-12-07T05:20:06.531Z,1.59
2022-12-07T05:22:54.241Z,2.02
2022-12-07T05:25:46.143Z,1.78
2022-12-07T05:28:33.263Z,1.96
2022-12-07T05:31:25.012Z,1.90
2022-12-07T05:34:12.216Z,1.69
2022-12-07T05:37:04.125Z,2.01
2022-12-07T05:39:50.844Z,1.86
2022-12-07T05:42:38.322Z,2.00
2022-12-07T05:45:25.624Z,1.99
2022-12-07T05:48:12.666Z,2.06
2022-12-07T05:50:59.961Z,1.93
2022-12-07T05:53:47.036Z,2.03
2022-12-07T05:56:34.148Z,1.96
2022-12-07T05:59:23.616Z,2.04
2022-12-07T06:02:14.237Z,1.83
2022-12-07T06:05:16.616Z,2.04
2022-12-07T06:08:06.093Z,2.13
2022-12-07T06:11:12.843Z,2.06
2022-12-07T06:13:59.764Z,2.12
2022-12-07T06:16:47.392Z,1.64
2022-12-07T06:19:34.676Z,1.94
2022-12-07T06:22:23.916Z,2.09
2022-12-07T06:25:14.671Z,1.75
2022-12-07T06:28:01.281Z,1.96
2022-12-07T06:30:48.027Z,2.07
2022-12-07T06:33:34.452Z,2.10
2022-12-07T06:36:27.056Z,1.80
2022-12-07T06:39:16.073Z,2.16
2022-12-07T06:42:03.280Z,1.84
2022-12-07T06:44:49.448Z,2.15
2022-12-07T06:47:42.049Z,2.15
2022-12-07T06:50:34.869Z,2.18
2022-12-07T06:53:22.072Z,2.08
2022-12-07T06:56:09.181Z,1.79
2022-12-07T06:58:56.331Z,2.19
2022-12-07T07:01:42.982Z,1.80
2022-12-07T07:04:30.374Z,1.82
2022-12-07T07:07:16.781Z,2.18
2022-12-07T07:10:03.728Z,2.05
2022-12-07T07:12:54.328Z,2.01
2022-12-07T07:15:43.974Z,1.86
2022-12-07T07:18:31.009Z,2.04
2022-12-07T07:21:18.060Z,1.75
2022-12-07T07:24:05.155Z,2.08
2022-12-07T07:26:54.386Z,2.04
2022-12-07T07:29:41.071Z,1.75
2022-12-07T07:32:28.036Z,2.01
2022-12-07T07:35:15.305Z,1.99
2022-12-07T07:38:04.360Z,2.10
2022-12-07T07:40:50.934Z,1.73
2022-12-07T07:43:38.037Z,1.87
2022-12-07T07:46:24.326Z,2.11
2022-12-07T07:49:12.107Z,2.25
2022-12-07T07:52:00.665Z,2.28
2022-12-07T07:54:48.216Z,2.33
2022-12-07T07:57:34.855Z,2.35
2022-12-07T08:00:21.737Z,2.41
2022-12-07T08:03:08.325Z,2.36
2022-12-07T08:05:55.452Z,2.44
2022-12-07T08:08:41.899Z,2.31
2022-12-07T08:11:29.149Z,2.40
2022-12-07T08:14:15.541Z,2.35
2022-12-07T08:17:02.303Z,2.04
2022-12-07T08:19:52.019Z,2.39
2022-12-07T08:22:38.739Z,2.29
2022-12-07T08:25:25.412Z,2.43
2022-12-07T08:28:12.593Z,2.47
2022-12-07T08:31:06.733Z,2.28
2022-12-07T08:33:53.442Z,2.09
2022-12-07T08:36:39.554Z,2.41
2022-12-07T08:39:33.630Z,2.38
2022-12-07T08:42:19.756Z,2.34
2022-12-07T08:45:07.793Z,2.42
2022-12-07T08:47:56.121Z,2.43
2022-12-07T08:50:49.116Z,2.40
2022-12-07T08:53:36.634Z,2.03
2022-12-07T08:56:23.561Z,2.44
2022-12-07T08:59:10.248Z,2.46
2022-12-07T09:01:58.869Z,2.11
2022-12-07T09:04:45.153Z,2.14
2022-12-07T09:07:34.504Z,2.44
2022-12-07T09:10:22.050Z,2.43
2022-12-07T09:13:08.832Z,2.47
2022-12-07T09:15:55.437Z,2.25
2022-12-07T09:18:42.950Z,2.48
2022-12-07T09:21:31.675Z,2.58
2022-12-07T09:24:19.509Z,2.59
2022-12-07T09:27:08.530Z,2.48
2022-12-07T09:29:55.224Z,2.58
2022-12-07T09:32:41.988Z,2.40
2022-12-07T09:35:31.986Z,2.58
2022-12-07T09:38:19.332Z,2.44
2022-12-07T09:41:09.424Z,2.44
2022-12-07T09:44:04.095Z,2.41
2022-12-07T09:47:01.125Z,2.30
2022-12-07T09:49:47.444Z,2.41
2022-12-07T09:52:38.874Z,2.09
2022-12-07T09:55:29.516Z,2.31
2022-12-07T09:58:30.138Z,2.33
2022-12-07T10:01:19.771Z,2.04
2022-12-07T10:04:16.520Z,2.32
2022-12-07T10:07:06.333Z,2.10
2022-12-07T10:09:53.037Z,2.26
2022-12-07T10:12:59.871Z,2.27
2022-12-07T10:16:10.131Z,2.23
2022-12-07T10:18:57.746Z,2.23
2022-12-07T10:22:00.306Z,2.13
2022-12-07T10:24:49.082Z,2.09
2022-12-07T10:27:35.391Z,2.11
2022-12-07T10:30:22.341Z,1.93
2022-12-07T10:33:30.352Z,2.14
2022-12-07T10:36:23.197Z,2.14
2022-12-07T10:39:15.340Z,2.16
2022-12-07T10:42:04.751Z,2.04
2022-12-07T10:45:14.039Z,2.11
2022-12-07T10:48:18.534Z,2.09
2022-12-07T10:51:11.138Z,2.06
2022-12-07T10:53:57.852Z,2.03
2022-12-07T10:56:52.689Z,2.00
2022-12-07T10:59:48.675Z,1.99
2022-12-07T11:02:50.356Z,1.95
2022-12-07T11:05:37.240Z,1.93
2022-12-07T11:09:04.883Z,1.88
2022-12-07T11:12:13.894Z,1.78
2022-12-07T11:15:09.539Z,1.78
2022-12-07T11:18:02.303Z,1.86
2022-12-07T11:20:50.871Z,1.77
2022-12-07T11:23:59.429Z,1.72
2022-12-07T11:27:21.287Z,1.73
2022-12-07T11:30:33.735Z,1.70
2022-12-07T11:33:35.704Z,1.47
2022-12-07T11:36:48.207Z,1.72
2022-12-07T11:39:53.657Z,1.48
2022-12-07T11:42:45.788Z,1.75
2022-12-07T11:45:36.293Z,1.37
2022-12-07T11:48:29.911Z,1.78
2022-12-07T11:51:20.160Z,1.77
2022-12-07T11:54:17.829Z,1.46
2022-12-07T11:57:14.392Z,1.66
2022-12-07T12:00:11.403Z,1.87
2022-12-07T12:03:11.018Z,1.85
2022-12-07T12:05:58.318Z,1.83
2022-12-07T12:15:41.201Z,1.84
2022-12-07T12:18:45.905Z,1.89
2022-12-07T12:21:42.712Z,1.79
2022-12-07T12:24:37.582Z,1.77
2022-12-07T12:27:32.818Z,1.82
2022-12-07T12:30:58.634Z,1.80
2022-12-07T12:33:51.107Z,1.71
2022-12-07T12:36:44.142Z,1.67
2022-12-07T12:39:30.683Z,1.53
2022-12-07T12:42:19.756Z,1.66
2022-12-07T12:45:28.153Z,1.43
2022-12-07T12:48:30.727Z,1.68
2022-12-07T12:51:40.615Z,1.71
2022-12-07T12:54:31.502Z,1.75
2022-12-07T12:57:26.911Z,1.59
2022-12-07T13:00:21.902Z,1.55
2022-12-07T13:03:26.104Z,1.75
2022-12-07T13:06:28.303Z,1.59
2022-12-07T13:09:46.984Z,1.87
2022-12-07T13:12:36.086Z,1.77
2022-12-07T13:16:14.269Z,1.86
2022-12-07T13:19:44.121Z,1.92
2022-12-07T13:22:39.169Z,1.95
2022-12-07T13:25:33.119Z,1.65
2022-12-07T13:28:20.411Z,1.89
2022-12-07T13:31:26.636Z,1.86
2022-12-07T13:34:36.249Z,1.86
2022-12-07T13:37:36.695Z,1.78
2022-12-07T13:40:25.703Z,1.70
2022-12-07T13:43:16.776Z,1.76
2022-12-07T13:46:03.209Z,1.76
2022-12-07T13:48:51.445Z,1.65
2022-12-07T13:51:38.346Z,1.74
2022-12-07T13:54:25.439Z,1.83
2022-12-07T13:57:11.924Z,1.70
2022-12-07T13:59:59.180Z,1.44
2022-12-07T14:07:23.681Z,1.89
2022-12-07T14:10:50.800Z,1.91
2022-12-07T14:13:42.837Z,1.81
2022-12-07T14:16:30.761Z,1.52
2022-12-07T14:19:49.426Z,1.89
2022-12-07T14:22:38.166Z,1.71
2022-12-07T14:25:28.532Z,1.98
2022-12-07T14:28:30.147Z,1.96
2022-12-07T14:31:29.873Z,1.99
2022-12-07T14:34:24.128Z,1.98
2022-12-07T14:37:13.969Z,1.71
2022-12-07T14:40:00.523Z,2.02
2022-12-07T14:42:49.219Z,2.07
2022-12-07T14:45:38.283Z,1.94
2022-12-07T14:54:38.704Z,2.02
2022-12-07T14:57:27.164Z,2.02
2022-12-07T15:00:18.308Z,1.98
2022-12-07T15:03:05.153Z,1.95
2022-12-07T15:05:51.962Z,1.87
2022-12-07T15:08:38.278Z,1.78
2022-12-07T15:11:25.482Z,1.74
2022-12-07T15:14:13.441Z,1.83
2022-12-07T15:17:10.501Z,1.66
2022-12-07T15:32:08.477Z,1.64
2022-12-07T15:35:23.171Z,1.46
2022-12-07T15:39:11.922Z,1.69
2022-12-07T15:42:13.821Z,1.30
2022-12-07T15:45:23.751Z,1.28
2022-12-07T15:49:14.804Z,1.33
2022-12-07T15:52:50.255Z,1.55
2022-12-07T15:56:20.153Z,1.55
2022-12-07T15:59:19.936Z,1.55
2022-12-07T16:02:25.641Z,1.48
2022-12-07T16:09:34.449Z,1.35
2022-12-07T16:12:44.643Z,1.18
2022-12-07T16:16:11.645Z,1.18
2022-12-07T16:19:01.557Z,0.84
2022-12-07T16:22:11.513Z,0.62
2022-12-07T16:25:08.759Z,0.92
2022-12-07T16:28:43.272Z,0.81
2022-12-07T16:32:06.472Z,0.81
2022-12-07T16:35:17.601Z,0.75
2022-12-07T16:38:52.052Z,0.67
2022-12-07T16:41:39.841Z,0.61
2022-12-07T16:45:19.152Z,0.58
2022-12-07T16:48:45.401Z,0.47
2022-12-07T16:51:42.455Z,0.32
2022-12-07T16:54:52.181Z,0.54
2022-12-07T17:02:14.647Z,0.50
2022-12-07T17:05:50.150Z,0.43
2022-12-07T17:08:50.768Z,0.54
2022-12-07T17:11:37.904Z,0.55
2022-12-07T17:14:52.600Z,0.55
2022-12-07T17:18:35.792Z,0.60
2022-12-07T17:21:54.434Z,0.56
2022-12-07T17:24:46.774Z,0.28
2022-12-07T17:27:57.954Z,0.56
2022-12-07T17:31:11.025Z,0.59
2022-12-07T17:34:17.722Z,0.48
2022-12-07T17:40:54.671Z,0.53
2022-12-07T17:44:06.731Z,0.54
2022-12-07T17:47:41.163Z,0.50
2022-12-07T17:51:17.245Z,0.48
2022-12-07T17:54:44.711Z,0.38
2022-12-07T17:58:50.781Z,0.51
2022-12-07T18:10:00.906Z,0.50
2022-12-07T18:12:52.097Z,0.48
2022-12-07T18:15:39.082Z,0.48
2022-12-07T18:18:26.025Z,0.12
2022-12-07T18:21:16.339Z,0.37
2022-12-07T18:24:05.001Z,0.41
2022-12-07T18:26:55.273Z,0.21
2022-12-07T18:29:42.503Z,0.39
2022-12-07T18:32:31.082Z,0.51
2022-12-07T18:35:17.653Z,0.47
2022-12-07T18:38:04.475Z,0.55
2022-12-07T18:40:51.148Z,0.63
2022-12-07T18:43:37.213Z,0.64
2022-12-07T18:46:24.379Z,0.69
2022-12-07T18:49:19.907Z,0.66
2022-12-07T18:52:08.949Z,0.27
2022-12-07T20:29:43.214Z,-0.06
2022-12-07T20:37:28.785Z,-0.06
2022-12-07T20:59:28.393Z,-0.50
2022-12-07T21:02:33.426Z,-0.26
2022-12-07T21:06:10.999Z,-0.57
2022-12-07T21:09:15.455Z,-0.17
2022-12-07T21:12:18.540Z,-0.30
2022-12-07T21:15:10.045Z,-0.17
2022-12-07T21:18:39.307Z,-0.24
2022-12-07T21:23:46.878Z,-0.19
2022-12-07T21:30:23.911Z,-0.26
2022-12-07T21:37:50.775Z,-0.03
2022-12-07T21:41:27.833Z,0.10
2022-12-07T22:13:01.813Z,0.29
2022-12-07T22:35:38.345Z,0.40
2022-12-07T22:39:37.761Z,0.05
2022-12-07T22:42:52.965Z,0.03
2022-12-07T22:46:46.403Z,0.24
2022-12-07T22:54:29.226Z,0.39
2022-12-07T22:57:51.960Z,0.31
2022-12-07T23:01:47.539Z,0.46
2022-12-07T23:05:41.048Z,0.29
2022-12-07T23:09:15.787Z,0.46
2022-12-07T23:13:03.026Z,0.34
2022-12-07T23:20:52.419Z,0.49
2022-12-07T23:28:37.669Z,0.27
2022-12-07T23:31:35.079Z,0.43
2022-12-07T23:38:39.477Z,0.03
2022-12-07T23:57:58.785Z,0.33
